LOWW METAR and TAF | Updated Today

LOWW METAR

Vienna International Airport

Observation time: 21 min. ago

LOWW 052050Z 36006KT CAVOK M04/M08 Q1037 NOSIG

Need help? Read our tutorial on how to read METARs or read the parsed version below.

Vienna International Airport (LOWW) METAR

  • Weather conditions on Sun, 05 Feb 2023 20:50:00 +0000 (21 min. ago):
  • Present conditions: Dry
  • Clouds: Clear skies
  • Visibility: Greater than 10 km
  • Wind: 360 degrees at 6 knots
  • Temperature: -4 celsius
  • Dew point: -8 celsius
  • Pressure: 1037 millibars
  • Remarks: None


Useful to know...

LOWW TAF

Vienna International Airport

TAF LOWW 052015Z 0521/0703 36008KT CAVOK TX00/0612Z TNM07/0703Z
Observation time: 56 min. ago
Need help? Read our tutorial on how to read TAFs or read the parsed version below.

Parsed version of TAF for Vienna International Airport (LOWW)

  • From 05 February at 21:00 UTC, to day 07 of the month at 03:00 UTC
  • Visibility: Greater than 10 km
  • Wind: 360 degrees at 8